Time;durP1;ratioP1;P1;durP2;ratioP2;P2;SDS_P1;SDS_P2;PMS_P1;PMS_P2;Temp;Humidity;BMP_temperature;BMP_pressure;BME280_temperature;BME280_humidity;BME280_pressure;Samples;Min_cycle;Max_cycle;Signal;HPM_P1;HPM_P2
2020/12/09 00:01:54;;;;;;;14.45;10.38;;;6.10;99.90;;;;;;5045624;28;20363;-83
2020/12/09 00:04:21;;;;;;;17.13;10.60;;;6.00;99.90;;;;;;5071783;28;20385;-83
2020/12/09 00:06:48;;;;;;;14.10;10.27;;;6.00;99.90;;;;;;5070505;28;20405;-82
2020/12/09 00:09:16;;;;;;;16.27;10.80;;;6.00;99.90;;;;;;5054306;28;20723;-82
2020/12/09 00:11:42;;;;;;;16.98;10.43;;;6.00;99.90;;;;;;5057872;28;20412;-82
2020/12/09 00:14:09;;;;;;;16.60;10.77;;;6.00;99.90;;;;;;5074368;28;20408;-82
2020/12/09 00:16:35;;;;;;;16.48;10.98;;;6.00;99.90;;;;;;5057870;28;20364;-83
2020/12/09 00:19:03;;;;;;;17.33;11.23;;;5.90;99.90;;;;;;5074434;28;20362;-82
2020/12/09 00:21:31;;;;;;;17.23;11.02;;;6.00;99.90;;;;;;5074721;28;20374;-83
2020/12/09 00:23:57;;;;;;;15.25;10.75;;;6.00;99.90;;;;;;5076094;28;20367;-82
2020/12/09 00:26:26;;;;;;;14.80;9.95;;;6.00;99.90;;;;;;5074674;28;20391;-83
2020/12/09 00:28:54;;;;;;;17.23;11.45;;;6.00;99.90;;;;;;5075996;28;20373;-83
2020/12/09 00:31:23;;;;;;;22.92;16.95;;;6.00;99.90;;;;;;5076247;28;20756;-83
2020/12/09 00:33:49;;;;;;;20.88;13.50;;;6.00;99.90;;;;;;5075740;28;20390;-82
2020/12/09 00:36:17;;;;;;;15.95;11.68;;;6.00;99.90;;;;;;5074537;28;21194;-82
2020/12/09 00:38:44;;;;;;;15.23;10.73;;;6.00;99.90;;;;;;5075726;28;20366;-80
2020/12/09 00:41:18;;;;;;;13.55;10.07;;;5.90;99.90;;;;;;5076103;28;20366;-80
2020/12/09 00:43:45;;;;;;;15.18;10.65;;;5.90;99.90;;;;;;5075674;28;21192;-80
2020/12/09 00:46:19;;;;;;;14.32;9.73;;;6.00;99.90;;;;;;5074246;28;20416;-80
2020/12/09 00:48:45;;;;;;;14.35;9.38;;;5.90;99.90;;;;;;5076185;28;20374;-80
2020/12/09 00:51:19;;;;;;;16.25;10.13;;;6.00;99.90;;;;;;5057579;28;20374;-80
2020/12/09 00:53:45;;;;;;;17.37;10.67;;;5.90;99.90;;;;;;5074085;28;20500;-80
2020/12/09 00:56:11;;;;;;;13.48;10.13;;;5.90;99.90;;;;;;5091103;28;20370;-80
2020/12/09 00:58:37;;;;;;;13.50;10.07;;;5.90;99.90;;;;;;5074113;28;20374;-80
2020/12/09 01:01:05;;;;;;;13.30;9.48;;;5.90;99.90;;;;;;5074164;28;20856;-79
2020/12/09 01:03:31;;;;;;;12.75;9.02;;;5.80;99.90;;;;;;5057925;28;20393;-79
2020/12/09 01:05:58;;;;;;;12.63;9.40;;;5.90;99.90;;;;;;5075488;28;20883;-79
2020/12/09 01:08:24;;;;;;;11.90;9.25;;;5.90;99.90;;;;;;5057634;28;20386;-80
2020/12/09 01:10:50;;;;;;;12.73;9.18;;;5.90;99.90;;;;;;5057022;28;20500;-79
2020/12/09 01:13:16;;;;;;;12.50;8.38;;;5.90;99.90;;;;;;5075295;28;20385;-81
2020/12/09 01:15:43;;;;;;;12.93;9.10;;;5.90;99.90;;;;;;5057135;28;20870;-81
2020/12/09 01:18:09;;;;;;;11.30;8.45;;;5.90;99.90;;;;;;5075064;28;20898;-81
2020/12/09 01:20:35;;;;;;;11.88;9.00;;;5.90;99.90;;;;;;5056852;28;20362;-81
2020/12/09 01:23:01;;;;;;;14.05;8.77;;;5.90;99.90;;;;;;5074254;28;20719;-81
2020/12/09 01:25:27;;;;;;;14.10;8.63;;;5.90;99.90;;;;;;5056419;28;20370;-81
2020/12/09 01:27:55;;;;;;;14.40;10.20;;;5.90;99.90;;;;;;5056451;28;20418;-80
2020/12/09 01:30:22;;;;;;;11.98;8.93;;;5.90;99.90;;;;;;5074257;28;20725;-80
2020/12/09 01:32:48;;;;;;;12.77;9.02;;;5.90;99.90;;;;;;5074320;28;20374;-80
2020/12/09 01:35:14;;;;;;;11.73;8.57;;;5.90;99.90;;;;;;5053320;28;20382;-81
2020/12/09 01:37:40;;;;;;;12.50;8.38;;;5.90;99.90;;;;;;5074122;28;20366;-80
2020/12/09 01:40:06;;;;;;;11.73;8.50;;;5.80;99.90;;;;;;5056108;28;20385;-80
2020/12/09 01:42:32;;;;;;;12.70;9.02;;;5.80;99.90;;;;;;5074015;28;20362;-80
2020/12/09 01:44:58;;;;;;;13.43;9.02;;;5.80;99.90;;;;;;5057443;28;20362;-80
2020/12/09 01:47:25;;;;;;;12.82;9.02;;;5.80;99.90;;;;;;5074730;28;21038;-80
2020/12/09 01:49:52;;;;;;;16.27;8.38;;;5.80;99.90;;;;;;5056461;28;20402;-80
2020/12/09 01:52:19;;;;;;;28.48;9.00;;;5.80;99.90;;;;;;5074912;28;20705;-83
2020/12/09 01:54:45;;;;;;;11.93;8.82;;;5.80;99.90;;;;;;5074286;28;20877;-81
2020/12/09 01:57:14;;;;;;;12.70;8.52;;;5.80;99.90;;;;;;5056268;28;20377;-81
2020/12/09 01:59:41;;;;;;;13.07;8.90;;;5.70;99.90;;;;;;5056294;28;20374;-81
2020/12/09 02:02:08;;;;;;;11.25;8.95;;;5.70;99.90;;;;;;5074085;28;20362;-81
2020/12/09 02:04:35;;;;;;;13.88;9.57;;;5.70;99.90;;;;;;5056195;28;20385;-82
2020/12/09 02:07:01;;;;;;;12.00;9.15;;;5.70;99.90;;;;;;5074067;28;20461;-83
2020/12/09 02:09:27;;;;;;;12.88;8.50;;;5.70;99.90;;;;;;5055898;28;20413;-82
2020/12/09 02:11:55;;;;;;;12.52;9.43;;;5.70;99.90;;;;;;5056105;28;20382;-82
2020/12/09 02:14:21;;;;;;;9.98;7.95;;;5.70;99.90;;;;;;5073883;28;20390;-82
2020/12/09 02:16:52;;;;;;;11.38;7.95;;;5.60;99.90;;;;;;5055876;28;20370;-82
2020/12/09 02:19:18;;;;;;;14.65;8.38;;;5.70;99.90;;;;;;5073770;28;20378;-83
2020/12/09 02:21:44;;;;;;;11.40;7.57;;;5.70;99.90;;;;;;5074021;28;20441;-81
2020/12/09 02:24:10;;;;;;;12.85;8.93;;;5.70;99.90;;;;;;5073785;28;20365;-82
2020/12/09 02:26:44;;;;;;;16.15;11.45;;;5.60;99.90;;;;;;5055814;28;20374;-82
2020/12/09 02:29:11;;;;;;;16.23;9.70;;;5.70;99.90;;;;;;5055764;28;20374;-81
2020/12/09 02:31:38;;;;;;;12.38;9.20;;;5.70;99.90;;;;;;5055416;28;20385;-81
2020/12/09 02:34:04;;;;;;;10.30;7.63;;;5.70;99.90;;;;;;5073137;28;20388;-81
2020/12/09 02:36:30;;;;;;;9.55;7.10;;;5.70;99.90;;;;;;5055600;28;20370;-81
2020/12/09 02:38:57;;;;;;;9.20;7.22;;;5.70;99.90;;;;;;5073407;28;20845;-80
2020/12/09 02:41:23;;;;;;;9.38;7.20;;;5.70;99.90;;;;;;5073312;28;20380;-81
2020/12/09 02:43:49;;;;;;;8.67;6.97;;;5.70;99.90;;;;;;5073306;28;20449;-81
2020/12/09 02:46:15;;;;;;;27.13;8.25;;;5.80;99.90;;;;;;5055457;28;20373;-81
2020/12/09 02:48:40;;;;;;;9.20;6.88;;;5.80;99.90;;;;;;5055292;28;20376;-81
2020/12/09 02:51:07;;;;;;;9.00;7.05;;;5.70;99.90;;;;;;5073420;28;20431;-80
2020/12/09 02:53:33;;;;;;;8.60;6.40;;;5.70;99.90;;;;;;5055148;28;20378;-80
2020/12/09 02:55:58;;;;;;;8.80;6.50;;;5.70;99.90;;;;;;5073444;28;20381;-80
2020/12/09 02:58:25;;;;;;;8.70;6.10;;;5.70;99.90;;;;;;5055524;28;20374;-81
2020/12/09 03:00:52;;;;;;;8.25;6.70;;;5.70;99.90;;;;;;5073050;28;20358;-81
2020/12/09 03:03:17;;;;;;;10.20;7.07;;;5.70;99.90;;;;;;5055000;28;20926;-81
2020/12/09 03:05:43;;;;;;;9.50;6.95;;;5.70;99.90;;;;;;5072955;28;20362;-80
2020/12/09 03:08:09;;;;;;;8.90;6.37;;;5.60;99.90;;;;;;5073218;28;20362;-80
2020/12/09 03:10:35;;;;;;;10.50;7.30;;;5.60;99.90;;;;;;5072718;28;20481;-80
2020/12/09 03:13:01;;;;;;;10.10;7.43;;;5.60;99.90;;;;;;5054888;28;20485;-80
2020/12/09 03:15:27;;;;;;;9.38;6.97;;;5.50;99.90;;;;;;5054833;28;20393;-81
2020/12/09 03:17:53;;;;;;;10.48;7.30;;;5.50;99.90;;;;;;5054890;28;20909;-79
2020/12/09 03:20:19;;;;;;;9.98;6.72;;;5.50;99.90;;;;;;5054802;28;20417;-81
2020/12/09 03:22:45;;;;;;;10.10;6.72;;;5.50;99.90;;;;;;5054760;28;20370;-81
2020/12/09 03:25:10;;;;;;;12.45;6.80;;;5.60;99.90;;;;;;5054654;28;20381;-80
2020/12/09 03:27:36;;;;;;;11.87;7.83;;;5.60;99.90;;;;;;5072610;28;20358;-80
2020/12/09 03:30:04;;;;;;;9.57;7.20;;;5.60;99.90;;;;;;5072560;28;20448;-80
2020/12/09 03:32:30;;;;;;;11.93;6.95;;;5.60;99.90;;;;;;5072498;28;20366;-80
2020/12/09 03:34:56;;;;;;;9.03;6.57;;;5.60;99.90;;;;;;5072432;28;20449;-80
2020/12/09 03:37:21;;;;;;;10.90;6.40;;;5.60;99.90;;;;;;5072549;28;20428;-80
2020/12/09 03:39:47;;;;;;;9.33;6.30;;;5.60;99.90;;;;;;5054459;28;20447;-80
2020/12/09 03:42:13;;;;;;;8.13;5.93;;;5.60;99.90;;;;;;5072501;28;20369;-81
2020/12/09 03:44:39;;;;;;;7.87;5.70;;;5.60;99.90;;;;;;5071738;28;20369;-81
2020/12/09 03:47:05;;;;;;;7.57;6.20;;;5.60;99.90;;;;;;5054574;28;20439;-80
2020/12/09 03:49:32;;;;;;;9.30;6.05;;;5.60;99.90;;;;;;5072413;28;20395;-79
2020/12/09 03:51:58;;;;;;;8.07;5.88;;;5.50;99.90;;;;;;5072288;28;20374;-79
2020/12/09 03:54:24;;;;;;;8.25;6.07;;;5.60;99.90;;;;;;5072362;28;20463;-79
2020/12/09 03:56:50;;;;;;;8.53;6.27;;;5.60;99.90;;;;;;5072725;28;20480;-79
2020/12/09 03:59:16;;;;;;;9.07;6.38;;;5.60;99.90;;;;;;5072787;28;20366;-79
2020/12/09 04:01:42;;;;;;;9.63;7.07;;;5.70;99.90;;;;;;5072286;28;20350;-79
2020/12/09 04:04:08;;;;;;;9.27;6.60;;;5.70;99.90;;;;;;5054170;28;20380;-80
2020/12/09 04:06:35;;;;;;;9.07;7.00;;;5.70;99.90;;;;;;5054267;28;20378;-79
2020/12/09 04:09:01;;;;;;;9.15;6.80;;;5.70;99.90;;;;;;5072192;28;20423;-79
2020/12/09 04:11:27;;;;;;;9.90;7.65;;;5.70;99.90;;;;;;5054091;28;20742;-80
2020/12/09 04:13:53;;;;;;;9.75;6.78;;;5.70;99.90;;;;;;5054130;28;20416;-80
2020/12/09 04:16:18;;;;;;;11.43;7.60;;;5.70;99.90;;;;;;5054113;28;20468;-80
2020/12/09 04:18:44;;;;;;;19.17;7.72;;;5.70;99.90;;;;;;5054088;28;20373;-81
2020/12/09 04:21:10;;;;;;;9.18;7.03;;;5.70;99.90;;;;;;5054019;28;20384;-81
2020/12/09 04:23:36;;;;;;;9.27;7.38;;;5.70;99.90;;;;;;5054012;28;20451;-81
2020/12/09 04:26:01;;;;;;;9.02;6.72;;;5.70;99.90;;;;;;5072011;28;20374;-81
2020/12/09 04:28:27;;;;;;;8.75;6.70;;;5.70;99.90;;;;;;5072235;28;20915;-81
2020/12/09 04:30:53;;;;;;;10.15;6.97;;;5.70;99.90;;;;;;5053934;28;20374;-81
2020/12/09 04:33:26;;;;;;;8.70;6.45;;;5.70;99.90;;;;;;5071812;28;20757;-80
2020/12/09 04:35:52;;;;;;;11.25;7.80;;;5.70;99.90;;;;;;5072233;28;20359;-81
2020/12/09 04:38:18;;;;;;;7.95;6.20;;;5.70;99.90;;;;;;5053701;28;20833;-81
2020/12/09 04:40:44;;;;;;;7.97;6.35;;;5.70;99.90;;;;;;5053910;28;20405;-81
2020/12/09 04:43:10;;;;;;;9.50;6.40;;;5.70;99.90;;;;;;5071763;28;20366;-82
2020/12/09 04:45:37;;;;;;;8.55;5.95;;;5.60;99.90;;;;;;5072143;28;20366;-83
2020/12/09 04:48:14;;;;;;;7.97;5.75;;;5.50;99.90;;;;;;5053631;28;20725;-81
2020/12/09 04:50:51;;;;;;;9.02;6.43;;;5.50;99.90;;;;;;5053813;28;20370;-81
2020/12/09 04:53:25;;;;;;;8.52;5.82;;;5.60;99.90;;;;;;5071776;28;20374;-81
2020/12/09 04:55:55;;;;;;;8.65;5.93;;;5.70;99.90;;;;;;5055039;28;20865;-80
2020/12/09 04:58:40;;;;;;;11.27;6.80;;;5.60;99.90;;;;;;5075286;28;20363;-84
2020/12/09 05:01:15;;;;;;;14.98;7.53;;;5.60;99.90;;;;;;5075262;28;20898;-81
2020/12/09 05:03:49;;;;;;;12.25;7.60;;;5.70;99.90;;;;;;5057626;28;20465;-81
2020/12/09 05:06:18;;;;;;;11.52;7.35;;;5.60;99.90;;;;;;5075495;28;20709;-80
2020/12/09 05:08:57;;;;;;;9.07;6.80;;;5.50;99.90;;;;;;5057220;28;20386;-81
2020/12/09 05:11:27;;;;;;;8.93;6.60;;;5.50;99.90;;;;;;5074863;28;20459;-80
2020/12/09 05:13:55;;;;;;;9.02;6.35;;;5.50;99.90;;;;;;5057155;28;20386;-81
2020/12/09 05:16:22;;;;;;;8.50;6.05;;;5.40;99.90;;;;;;5074975;28;20370;-81
2020/12/09 05:18:56;;;;;;;9.37;6.40;;;5.50;99.90;;;;;;5057057;28;20370;-82
2020/12/09 05:21:25;;;;;;;10.60;6.47;;;5.40;99.90;;;;;;5075073;28;20366;-81
2020/12/09 05:23:59;;;;;;;8.97;6.50;;;5.40;99.90;;;;;;5075413;28;20381;-81
2020/12/09 05:26:33;;;;;;;9.65;6.65;;;5.40;99.90;;;;;;5075427;28;20362;-80
2020/12/09 05:29:16;;;;;;;10.70;6.60;;;5.40;99.90;;;;;;5056838;28;20397;-82
2020/12/09 05:31:48;;;;;;;10.02;7.35;;;5.40;99.90;;;;;;5074630;28;20397;-82
2020/12/09 05:34:33;;;;;;;12.57;7.60;;;5.40;99.90;;;;;;5056651;28;20390;-82
2020/12/09 05:37:08;;;;;;;9.95;6.68;;;5.40;99.90;;;;;;5056770;28;20358;-83
2020/12/09 05:39:35;;;;;;;10.13;6.60;;;5.40;99.90;;;;;;5056643;28;20378;-83
2020/12/09 05:42:15;;;;;;;9.50;5.78;;;5.40;99.90;;;;;;5056689;28;20363;-82
2020/12/09 05:44:42;;;;;;;8.30;6.20;;;5.40;99.90;;;;;;5074507;28;20716;-82
2020/12/09 05:47:08;;;;;;;8.07;5.40;;;5.40;99.90;;;;;;5056472;28;20732;-81
2020/12/09 05:49:39;;;;;;;9.63;6.27;;;5.40;99.90;;;;;;5074490;28;20362;-81
2020/12/09 05:52:16;;;;;;;8.10;5.43;;;5.40;99.90;;;;;;5074419;28;20361;-81
2020/12/09 05:54:47;;;;;;;24.63;15.55;;;5.40;99.90;;;;;;5056338;28;20390;-82
2020/12/09 05:57:16;;;;;;;14.90;10.05;;;5.40;99.90;;;;;;5056276;28;20377;-83
2020/12/09 05:59:48;;;;;;;7.80;6.13;;;5.40;99.90;;;;;;5056333;28;20371;-83
2020/12/09 06:02:14;;;;;;;8.13;5.80;;;5.40;99.90;;;;;;5074081;28;20864;-82
2020/12/09 06:04:47;;;;;;;8.87;6.27;;;5.40;99.90;;;;;;5055975;28;20424;-82
2020/12/09 06:07:14;;;;;;;9.77;5.90;;;5.40;99.90;;;;;;5073334;28;20398;-82
2020/12/09 06:09:40;;;;;;;11.17;7.27;;;5.40;99.90;;;;;;5073807;28;20385;-82
2020/12/09 06:12:07;;;;;;;14.27;6.05;;;5.40;99.90;;;;;;5056077;28;20378;-81
2020/12/09 06:14:33;;;;;;;7.70;5.78;;;5.30;99.90;;;;;;5055777;28;20393;-81
2020/12/09 06:17:00;;;;;;;11.48;5.53;;;5.30;99.90;;;;;;5055949;28;20366;-81
2020/12/09 06:19:26;;;;;;;10.45;6.20;;;5.30;99.90;;;;;;5055802;28;20370;-81
2020/12/09 06:21:57;;;;;;;12.68;8.73;;;5.20;99.90;;;;;;5055756;28;20369;-81
2020/12/09 06:24:24;;;;;;;9.25;6.82;;;5.20;99.90;;;;;;5055775;28;20378;-81
2020/12/09 06:26:50;;;;;;;8.95;6.65;;;5.20;99.90;;;;;;5073685;28;20373;-81
2020/12/09 06:29:23;;;;;;;13.60;7.97;;;5.20;99.90;;;;;;5073601;28;20374;-81
2020/12/09 06:32:02;;;;;;;9.88;7.43;;;5.30;99.90;;;;;;5055715;28;20375;-81
2020/12/09 06:34:28;;;;;;;13.43;8.80;;;5.30;99.90;;;;;;5055358;28;21310;-81
2020/12/09 06:37:11;;;;;;;13.38;9.48;;;5.30;99.90;;;;;;5055645;28;20370;-81
2020/12/09 06:39:37;;;;;;;12.38;9.30;;;5.30;99.90;;;;;;5055494;28;20370;-81
2020/12/09 06:42:03;;;;;;;11.57;8.10;;;5.30;99.90;;;;;;5073462;28;20695;-81
2020/12/09 06:44:29;;;;;;;11.10;7.37;;;5.40;99.90;;;;;;5055270;28;20421;-82
2020/12/09 06:46:57;;;;;;;10.57;6.95;;;5.40;99.90;;;;;;5073595;28;20366;-81
2020/12/09 06:49:29;;;;;;;10.25;7.75;;;5.50;99.90;;;;;;5055231;28;20381;-81
2020/12/09 06:52:01;;;;;;;11.80;8.60;;;5.40;99.90;;;;;;5055153;28;20383;-83
2020/12/09 06:54:43;;;;;;;13.32;7.68;;;5.40;99.90;;;;;;5073642;28;20382;-82
2020/12/09 06:57:21;;;;;;;11.27;9.25;;;5.40;99.90;;;;;;5055184;28;20457;-82
2020/12/09 06:59:52;;;;;;;13.05;8.90;;;5.40;99.90;;;;;;5055050;28;20373;-82
2020/12/09 07:02:29;;;;;;;12.37;9.23;;;5.40;99.90;;;;;;5055088;28;21165;-83
2020/12/09 07:04:55;;;;;;;11.25;9.15;;;5.40;99.90;;;;;;5054971;28;20374;-83
2020/12/09 07:07:44;;;;;;;10.18;8.07;;;5.50;99.90;;;;;;5054710;28;20860;-83
2020/12/09 07:10:23;;;;;;;12.75;9.63;;;5.50;99.90;;;;;;5054610;28;20884;-83
2020/12/09 07:13:12;;;;;;;14.13;10.07;;;5.50;99.90;;;;;;5073359;28;20366;-82
2020/12/09 07:15:42;;;;;;;13.85;9.27;;;5.40;99.90;;;;;;5072603;28;20382;-83
2020/12/09 07:18:08;;;;;;;16.08;10.38;;;5.50;99.90;;;;;;5072138;28;20373;-81
2020/12/09 07:20:35;;;;;;;14.40;10.98;;;5.50;99.90;;;;;;5072791;28;20452;-81
2020/12/09 07:23:02;;;;;;;17.40;13.15;;;5.50;99.90;;;;;;5072809;28;20365;-81
2020/12/09 07:25:28;;;;;;;13.40;9.93;;;5.40;99.90;;;;;;5054397;28;20382;-80
2020/12/09 07:27:55;;;;;;;17.33;11.27;;;5.40;99.90;;;;;;5072979;28;20361;-81
2020/12/09 07:30:21;;;;;;;12.75;9.35;;;5.50;99.90;;;;;;5054625;28;20386;-80
2020/12/09 07:32:49;;;;;;;23.33;13.93;;;5.50;99.90;;;;;;5054662;28;20370;-81
2020/12/09 07:35:17;;;;;;;20.10;12.38;;;5.50;99.90;;;;;;5054285;28;20386;-81
2020/12/09 07:37:50;;;;;;;14.07;8.32;;;5.50;99.90;;;;;;5072363;28;20381;-80
2020/12/09 07:40:27;;;;;;;13.00;9.07;;;5.40;99.90;;;;;;5054489;28;20410;-82
2020/12/09 07:43:01;;;;;;;14.65;9.25;;;5.50;99.90;;;;;;5054442;28;20432;-82
2020/12/09 07:45:27;;;;;;;15.00;9.88;;;5.50;99.90;;;;;;5054373;28;20377;-82
2020/12/09 07:48:08;;;;;;;12.63;9.18;;;5.50;99.90;;;;;;5072685;28;20374;-84
2020/12/09 07:50:34;;;;;;;12.60;8.35;;;5.60;99.90;;;;;;5054612;28;20464;-84
2020/12/09 07:53:00;;;;;;;12.52;8.82;;;5.60;99.90;;;;;;5054385;28;20365;-83
2020/12/09 07:55:26;;;;;;;11.68;8.60;;;5.50;99.90;;;;;;5053902;28;20956;-83
2020/12/09 07:58:05;;;;;;;13.02;9.95;;;5.60;99.90;;;;;;5054345;28;20879;-82
2020/12/09 08:00:40;;;;;;;12.30;9.18;;;5.60;99.90;;;;;;5072302;28;20397;-84
2020/12/09 08:03:06;;;;;;;14.88;10.30;;;5.60;99.90;;;;;;5054334;28;20373;-84
2020/12/09 08:05:37;;;;;;;18.33;12.82;;;5.70;99.90;;;;;;5072303;28;20374;-84
2020/12/09 08:08:08;;;;;;;11.75;9.57;;;5.70;99.90;;;;;;5053357;28;20385;-84
2020/12/09 08:10:36;;;;;;;12.90;9.30;;;5.70;99.90;;;;;;5051140;28;20404;-82
2020/12/09 08:13:13;;;;;;;19.23;10.00;;;5.70;99.90;;;;;;5051715;28;20454;-84
2020/12/09 08:15:41;;;;;;;13.10;9.70;;;5.80;99.90;;;;;;5066944;28;20470;-83
2020/12/09 08:18:08;;;;;;;12.52;9.65;;;5.80;99.90;;;;;;5050558;28;20414;-84
2020/12/09 08:20:48;;;;;;;14.77;11.43;;;5.80;99.90;;;;;;5067375;28;20454;-83
2020/12/09 08:23:14;;;;;;;23.08;12.88;;;5.90;99.90;;;;;;5051876;28;20723;-84
2020/12/09 08:25:53;;;;;;;27.47;9.90;;;5.90;99.90;;;;;;5051833;28;20554;-83
2020/12/09 08:28:24;;;;;;;32.00;11.40;;;6.00;99.90;;;;;;5083858;28;20457;-83
2020/12/09 08:30:52;;;;;;;27.37;13.00;;;6.20;99.90;;;;;;5051487;28;20382;-83
2020/12/09 08:33:23;;;;;;;20.95;11.60;;;6.50;99.90;;;;;;5071158;28;20458;-84
2020/12/09 08:35:58;;;;;;;17.48;10.52;;;6.70;99.90;;;;;;5055505;28;20476;-86
2020/12/09 08:38:30;;;;;;;14.65;7.90;;;6.60;99.90;;;;;;5070908;28;20415;-83
2020/12/09 08:41:00;;;;;;;14.02;10.55;;;6.40;99.90;;;;;;5089902;28;20379;-84
2020/12/09 08:43:31;;;;;;;12.85;9.52;;;6.30;99.90;;;;;;5057415;28;20369;-84
2020/12/09 08:45:57;;;;;;;12.00;9.55;;;6.30;99.90;;;;;;5057202;28;20378;-84
2020/12/09 08:48:24;;;;;;;15.85;11.23;;;6.20;99.90;;;;;;5056978;28;20412;-84
2020/12/09 08:50:51;;;;;;;18.27;12.88;;;6.20;99.90;;;;;;5057446;28;20393;-84
2020/12/09 08:53:19;;;;;;;16.95;11.25;;;6.30;99.90;;;;;;5057134;28;20378;-86
2020/12/09 08:55:46;;;;;;;20.75;13.10;;;6.20;99.90;;;;;;5057404;28;20898;-83
2020/12/09 08:58:13;;;;;;;22.27;14.48;;;6.20;99.90;;;;;;5057017;28;20362;-84
2020/12/09 09:00:39;;;;;;;22.98;15.27;;;6.30;99.90;;;;;;5055828;28;20401;-84
2020/12/09 09:03:12;;;;;;;22.15;16.27;;;6.20;99.90;;;;;;5075122;28;20860;-79
2020/12/09 09:05:41;;;;;;;43.25;28.02;;;6.20;99.90;;;;;;5073905;28;20366;-80
2020/12/09 09:08:11;;;;;;;54.88;34.17;;;6.20;99.90;;;;;;5057026;28;20492;-80
2020/12/09 09:10:37;;;;;;;92.65;55.97;;;6.20;99.90;;;;;;5074932;28;20405;-82
2020/12/09 09:13:04;;;;;;;25.80;15.90;;;6.20;99.90;;;;;;5075019;28;20402;-82
2020/12/09 09:15:30;;;;;;;73.93;45.23;;;6.20;99.90;;;;;;5074924;28;20390;-80
2020/12/09 09:17:58;;;;;;;62.75;35.22;;;6.20;99.90;;;;;;5057086;28;20380;-82
2020/12/09 09:20:24;;;;;;;55.67;32.42;;;6.20;99.90;;;;;;5057059;28;20427;-81
2020/12/09 09:22:50;;;;;;;31.70;22.47;;;6.30;99.90;;;;;;5074930;28;20812;-81
2020/12/09 09:25:16;;;;;;;37.70;21.27;;;6.30;99.90;;;;;;5074870;28;20377;-81
2020/12/09 09:27:42;;;;;;;15.75;11.13;;;6.20;99.90;;;;;;5056811;28;20374;-84
2020/12/09 09:30:08;;;;;;;18.40;13.30;;;6.20;99.90;;;;;;5074797;28;20427;-85
2020/12/09 09:32:35;;;;;;;33.15;22.15;;;6.20;99.90;;;;;;5056837;28;20377;-84
2020/12/09 09:35:00;;;;;;;40.72;24.83;;;6.20;99.90;;;;;;5074516;28;20747;-83
2020/12/09 09:37:26;;;;;;;108.40;62.17;;;6.20;99.90;;;;;;5074489;28;20441;-84
2020/12/09 09:39:52;;;;;;;41.10;24.80;;;6.20;99.90;;;;;;5056609;28;20465;-83
2020/12/09 09:42:19;;;;;;;59.03;34.90;;;6.10;99.90;;;;;;5056491;28;20519;-80
2020/12/09 09:44:45;;;;;;;53.42;34.38;;;6.10;99.90;;;;;;5072164;28;20471;-83
2020/12/09 09:47:11;;;;;;;61.97;39.75;;;6.20;99.90;;;;;;5055867;28;20453;-81
2020/12/09 09:49:38;;;;;;;54.72;36.30;;;6.60;99.90;;;;;;5055744;28;20481;-83
2020/12/09 09:52:04;;;;;;;32.30;17.90;;;6.80;99.90;;;;;;5055649;28;20373;-83
2020/12/09 09:54:30;;;;;;;38.13;27.05;;;6.70;99.90;;;;;;5073329;28;20394;-83
2020/12/09 09:56:56;;;;;;;70.13;39.35;;;6.50;99.90;;;;;;5055940;28;20366;-84
2020/12/09 09:59:22;;;;;;;88.32;51.50;;;6.30;99.90;;;;;;5055552;28;20871;-86
2020/12/09 10:01:48;;;;;;;59.20;41.03;;;6.90;99.90;;;;;;5055526;28;20358;-83
2020/12/09 10:04:13;;;;;;;50.42;33.75;;;6.60;99.90;;;;;;5055982;28;20454;-82
2020/12/09 10:06:39;;;;;;;33.73;23.43;;;6.80;99.90;;;;;;5055738;28;20872;-83
2020/12/09 10:09:07;;;;;;;23.37;16.37;;;6.60;99.90;;;;;;5074048;28;20365;-81
2020/12/09 10:11:39;;;;;;;33.28;22.05;;;6.50;99.90;;;;;;5055855;28;20402;-81
2020/12/09 10:14:07;;;;;;;56.75;39.92;;;6.40;99.90;;;;;;5055568;28;20394;-81
2020/12/09 10:16:34;;;;;;;30.38;19.98;;;6.40;99.90;;;;;;5055665;28;20373;-81
2020/12/09 10:19:00;;;;;;;29.00;18.08;;;6.40;99.90;;;;;;5073547;28;20420;-81
2020/12/09 10:21:28;;;;;;;24.38;18.48;;;6.40;99.90;;;;;;5073870;28;20411;-82
2020/12/09 10:23:55;;;;;;;28.37;21.20;;;6.40;99.90;;;;;;5073677;28;20425;-81
2020/12/09 10:26:32;;;;;;;25.60;18.48;;;6.40;99.90;;;;;;5073263;28;20402;-80
2020/12/09 10:29:03;;;;;;;78.72;66.35;;;6.40;99.90;;;;;;5073129;28;20529;-84
2020/12/09 10:31:48;;;;;;;36.85;25.73;;;7.20;99.90;;;;;;5055444;28;20378;-84
2020/12/09 10:34:17;;;;;;;17.55;12.90;;;6.80;99.90;;;;;;5073245;28;20777;-84
2020/12/09 10:36:49;;;;;;;17.55;12.77;;;6.60;99.90;;;;;;5055569;28;20851;-85
2020/12/09 10:39:17;;;;;;;25.90;14.07;;;6.60;99.90;;;;;;5055553;28;20370;-81
2020/12/09 10:41:44;;;;;;;64.90;49.15;;;6.60;99.90;;;;;;5055509;28;20756;-82
2020/12/09 10:44:10;;;;;;;24.17;16.27;;;6.50;99.90;;;;;;5055308;28;20428;-81
2020/12/09 10:46:38;;;;;;;26.42;15.75;;;6.40;99.90;;;;;;5073362;28;20368;-81
2020/12/09 10:49:09;;;;;;;20.67;14.77;;;6.40;99.90;;;;;;5073062;28;20362;-81
2020/12/09 10:51:35;;;;;;;24.08;15.85;;;6.30;99.90;;;;;;5055201;28;20887;-81
2020/12/09 10:54:01;;;;;;;28.05;19.75;;;6.40;99.90;;;;;;5054627;28;20421;-80
2020/12/09 10:56:29;;;;;;;68.43;46.30;;;6.40;99.90;;;;;;5073075;28;20370;-81
2020/12/09 10:58:59;;;;;;;61.78;42.17;;;6.50;99.90;;;;;;5055055;28;20378;-81
2020/12/09 11:01:25;;;;;;;27.77;18.25;;;6.60;99.90;;;;;;5055034;28;20404;-81
2020/12/09 11:03:55;;;;;;;20.58;15.88;;;6.50;99.90;;;;;;5054851;28;20370;-81
2020/12/09 11:06:32;;;;;;;30.23;22.07;;;6.50;99.90;;;;;;5054875;28;20469;-81
2020/12/09 11:08:59;;;;;;;46.95;31.92;;;6.60;99.90;;;;;;5054829;28;20370;-81
2020/12/09 11:11:26;;;;;;;36.60;24.40;;;6.60;99.90;;;;;;5054649;28;20434;-81
2020/12/09 11:13:52;;;;;;;44.50;30.55;;;6.60;99.90;;;;;;5054753;28;20362;-82
2020/12/09 11:16:19;;;;;;;26.40;19.23;;;6.60;99.90;;;;;;5054633;28;20377;-81
2020/12/09 11:18:45;;;;;;;33.65;23.52;;;6.50;99.90;;;;;;5054849;28;20462;-81
2020/12/09 11:21:16;;;;;;;345.52;194.82;;;6.50;99.90;;;;;;5054829;28;20378;-80
2020/12/09 11:23:42;;;;;;;28.25;19.02;;;6.50;99.90;;;;;;5072666;28;20401;-81
2020/12/09 11:26:08;;;;;;;26.90;19.00;;;6.60;99.90;;;;;;5054397;28;20402;-81
2020/12/09 11:28:34;;;;;;;61.60;33.40;;;6.60;99.90;;;;;;5054408;28;20375;-82
2020/12/09 11:31:00;;;;;;;45.05;27.15;;;6.70;99.90;;;;;;5070793;28;20359;-81
2020/12/09 11:33:26;;;;;;;282.87;170.23;;;6.70;99.90;;;;;;5072301;28;20867;-82
2020/12/09 11:35:52;;;;;;;50.88;33.15;;;6.70;99.90;;;;;;5071250;28;20386;-81
2020/12/09 11:38:18;;;;;;;32.38;20.90;;;6.70;99.90;;;;;;5071835;28;20361;-81
2020/12/09 11:40:44;;;;;;;61.85;40.38;;;6.70;99.90;;;;;;5071928;28;20363;-81
2020/12/09 11:43:10;;;;;;;34.13;25.50;;;6.60;99.90;;;;;;5053952;28;20427;-81
2020/12/09 11:45:37;;;;;;;28.05;17.67;;;6.60;99.90;;;;;;5071508;28;20427;-81
2020/12/09 11:48:03;;;;;;;27.33;18.50;;;6.70;99.90;;;;;;5071985;28;20404;-80
2020/12/09 11:50:29;;;;;;;21.45;14.93;;;6.70;99.90;;;;;;5071928;28;20378;-81
2020/12/09 11:52:54;;;;;;;24.25;14.75;;;6.80;99.90;;;;;;5054977;28;20377;-81
2020/12/09 11:55:20;;;;;;;19.85;13.88;;;6.80;99.90;;;;;;5054164;28;20402;-80
2020/12/09 11:57:47;;;;;;;16.45;11.80;;;6.70;99.90;;;;;;5054224;28;20853;-80
2020/12/09 12:00:13;;;;;;;17.97;11.77;;;6.80;99.90;;;;;;5072347;28;20366;-80
2020/12/09 12:02:38;;;;;;;13.85;9.70;;;6.80;99.90;;;;;;5072223;28;20366;-80
2020/12/09 12:05:05;;;;;;;20.70;12.50;;;6.80;99.90;;;;;;5072367;28;20374;-80
2020/12/09 12:07:31;;;;;;;20.48;13.40;;;6.80;99.90;;;;;;5058168;28;20382;-83
2020/12/09 12:09:56;;;;;;;23.48;15.98;;;6.90;99.90;;;;;;5058086;28;20430;-81
2020/12/09 12:12:22;;;;;;;23.37;15.80;;;6.90;99.90;;;;;;5076281;28;20381;-81
2020/12/09 12:14:48;;;;;;;16.17;12.00;;;7.00;99.90;;;;;;5076242;28;20394;-82
2020/12/09 12:17:14;;;;;;;14.70;11.53;;;7.00;99.90;;;;;;5058120;28;20374;-83
2020/12/09 12:19:40;;;;;;;18.17;12.60;;;7.10;99.90;;;;;;5076132;28;20372;-82
2020/12/09 12:22:06;;;;;;;15.43;10.38;;;7.10;99.90;;;;;;5076110;28;20424;-83
2020/12/09 12:24:33;;;;;;;17.33;12.47;;;7.10;99.90;;;;;;5057331;28;20938;-81
2020/12/09 12:26:59;;;;;;;20.63;13.93;;;7.10;99.90;;;;;;5069985;28;20424;-84
2020/12/09 12:29:25;;;;;;;15.20;11.27;;;7.10;99.90;;;;;;5052727;28;20789;-81
2020/12/09 12:31:51;;;;;;;13.25;10.18;;;7.00;99.90;;;;;;5074018;28;20968;-84
2020/12/09 12:34:17;;;;;;;13.63;9.32;;;6.90;99.90;;;;;;5075180;28;20390;-82
2020/12/09 12:36:43;;;;;;;14.40;10.77;;;6.80;99.90;;;;;;5057616;28;20366;-82
2020/12/09 12:39:09;;;;;;;16.73;11.93;;;6.90;99.90;;;;;;5057456;28;20449;-83
2020/12/09 12:41:35;;;;;;;15.45;10.95;;;6.90;99.90;;;;;;5057277;28;20389;-84
2020/12/09 12:44:02;;;;;;;18.85;12.95;;;6.80;99.90;;;;;;5057214;28;20385;-84
2020/12/09 12:46:28;;;;;;;12.57;9.88;;;6.90;99.90;;;;;;5057170;28;20885;-84
2020/12/09 12:48:54;;;;;;;14.10;11.02;;;6.90;99.90;;;;;;5076817;28;20375;-82
2020/12/09 12:51:24;;;;;;;19.83;14.90;;;6.80;99.90;;;;;;5083807;28;21306;-83